sensor_id;sensor_type;location;lat;lon;timestamp;pressure;altitude;pressure_sealevel;temperature;humidity
61786;BME280;47692;53.714;11.372;2023-08-01T00:01:18;99818.34;;;14.96;100.00
61786;BME280;47692;53.714;11.372;2023-08-01T00:03:43;99815.44;;;15.00;100.00
61786;BME280;47692;53.714;11.372;2023-08-01T00:06:08;99811.03;;;15.01;100.00
61786;BME280;47692;53.714;11.372;2023-08-01T00:08:33;99807.31;;;15.05;100.00
61786;BME280;47692;53.714;11.372;2023-08-01T00:10:59;99792.31;;;15.07;100.00
61786;BME280;47692;53.714;11.372;2023-08-01T00:13:24;99787.22;;;15.04;100.00
61786;BME280;47692;53.714;11.372;2023-08-01T00:15:49;99776.09;;;14.99;100.00
61786;BME280;47692;53.714;11.372;2023-08-01T00:18:15;99777.22;;;14.95;100.00
61786;BME280;47692;53.714;11.372;2023-08-01T00:20:40;99771.03;;;14.96;100.00
61786;BME280;47692;53.714;11.372;2023-08-01T00:23:06;99761.72;;;14.90;100.00
61786;BME280;47692;53.714;11.372;2023-08-01T00:25:31;99750.41;;;14.88;100.00
61786;BME280;47692;53.714;11.372;2023-08-01T00:27:57;99754.94;;;14.86;100.00
61786;BME280;47692;53.714;11.372;2023-08-01T00:30:22;99744.91;;;14.93;100.00
61786;BME280;47692;53.714;11.372;2023-08-01T00:32:47;99734.59;;;14.90;100.00
61786;BME280;47692;53.714;11.372;2023-08-01T00:35:13;99724.91;;;14.90;100.00
61786;BME280;47692;53.714;11.372;2023-08-01T00:37:38;99709.81;;;14.94;100.00
61786;BME280;47692;53.714;11.372;2023-08-01T00:40:05;99712.63;;;14.91;100.00
61786;BME280;47692;53.714;11.372;2023-08-01T00:42:30;99710.00;;;14.91;100.00
61786;BME280;47692;53.714;11.372;2023-08-01T00:44:55;99708.91;;;14.95;100.00
61786;BME280;47692;53.714;11.372;2023-08-01T00:47:21;99712.88;;;15.02;100.00
61786;BME280;47692;53.714;11.372;2023-08-01T00:49:46;99699.72;;;15.02;100.00
61786;BME280;47692;53.714;11.372;2023-08-01T00:52:13;99691.84;;;15.02;100.00
61786;BME280;47692;53.714;11.372;2023-08-01T00:54:38;99697.41;;;15.12;100.00
61786;BME280;47692;53.714;11.372;2023-08-01T00:57:04;99698.25;;;15.12;100.00
61786;BME280;47692;53.714;11.372;2023-08-01T00:59:29;99678.91;;;15.13;100.00
61786;BME280;47692;53.714;11.372;2023-08-01T01:01:55;99668.56;;;15.10;100.00
61786;BME280;47692;53.714;11.372;2023-08-01T01:04:21;99670.69;;;15.19;100.00
61786;BME280;47692;53.714;11.372;2023-08-01T01:07:06;99653.97;;;15.21;100.00
61786;BME280;47692;53.714;11.372;2023-08-01T01:09:32;99660.91;;;15.22;100.00
61786;BME280;47692;53.714;11.372;2023-08-01T01:12:00;99650.31;;;15.23;100.00
61786;BME280;47692;53.714;11.372;2023-08-01T01:14:26;99651.03;;;15.25;100.00
61786;BME280;47692;53.714;11.372;2023-08-01T01:16:52;99649.84;;;15.31;100.00
61786;BME280;47692;53.714;11.372;2023-08-01T01:19:17;99649.47;;;15.37;100.00
61786;BME280;47692;53.714;11.372;2023-08-01T01:21:43;99650.63;;;15.33;100.00
61786;BME280;47692;53.714;11.372;2023-08-01T01:24:10;99637.47;;;15.33;100.00
61786;BME280;47692;53.714;11.372;2023-08-01T01:26:37;99632.00;;;15.36;100.00
61786;BME280;47692;53.714;11.372;2023-08-01T01:29:04;99631.63;;;15.42;100.00
61786;BME280;47692;53.714;11.372;2023-08-01T01:31:32;99621.13;;;15.42;100.00
61786;BME280;47692;53.714;11.372;2023-08-01T01:33:58;99608.72;;;15.44;100.00
61786;BME280;47692;53.714;11.372;2023-08-01T01:36:23;99620.94;;;15.45;100.00
61786;BME280;47692;53.714;11.372;2023-08-01T01:38:49;99617.34;;;15.46;100.00
61786;BME280;47692;53.714;11.372;2023-08-01T01:41:14;99604.41;;;15.43;100.00
61786;BME280;47692;53.714;11.372;2023-08-01T01:43:40;99598.88;;;15.48;100.00
61786;BME280;47692;53.714;11.372;2023-08-01T01:46:06;99594.66;;;15.45;100.00
61786;BME280;47692;53.714;11.372;2023-08-01T01:48:31;99594.44;;;15.48;100.00
61786;BME280;47692;53.714;11.372;2023-08-01T01:50:56;99590.41;;;15.43;100.00
61786;BME280;47692;53.714;11.372;2023-08-01T01:53:21;99586.00;;;15.43;100.00
61786;BME280;47692;53.714;11.372;2023-08-01T01:55:47;99583.94;;;15.48;100.00
61786;BME280;47692;53.714;11.372;2023-08-01T01:58:12;99574.72;;;15.41;100.00
61786;BME280;47692;53.714;11.372;2023-08-01T02:00:37;99571.53;;;15.36;100.00
61786;BME280;47692;53.714;11.372;2023-08-01T02:03:03;99572.28;;;15.38;100.00
61786;BME280;47692;53.714;11.372;2023-08-01T02:05:29;99573.00;;;15.40;100.00
61786;BME280;47692;53.714;11.372;2023-08-01T02:07:55;99571.25;;;15.41;100.00
61786;BME280;47692;53.714;11.372;2023-08-01T02:10:20;99573.97;;;15.39;100.00
61786;BME280;47692;53.714;11.372;2023-08-01T02:12:45;99571.06;;;15.44;100.00
61786;BME280;47692;53.714;11.372;2023-08-01T02:15:10;99570.38;;;15.40;100.00
61786;BME280;47692;53.714;11.372;2023-08-01T02:17:36;99564.47;;;15.37;100.00
61786;BME280;47692;53.714;11.372;2023-08-01T02:20:01;99564.94;;;15.29;100.00
61786;BME280;47692;53.714;11.372;2023-08-01T02:22:26;99556.88;;;15.32;100.00
61786;BME280;47692;53.714;11.372;2023-08-01T02:24:52;99553.50;;;15.30;100.00
61786;BME280;47692;53.714;11.372;2023-08-01T02:27:17;99551.13;;;15.25;100.00
61786;BME280;47692;53.714;11.372;2023-08-01T02:29:42;99560.44;;;15.31;100.00
61786;BME280;47692;53.714;11.372;2023-08-01T02:32:09;99554.41;;;15.29;100.00
61786;BME280;47692;53.714;11.372;2023-08-01T02:34:34;99537.72;;;15.30;100.00
61786;BME280;47692;53.714;11.372;2023-08-01T02:36:59;99533.88;;;15.21;100.00
61786;BME280;47692;53.714;11.372;2023-08-01T02:39:25;99533.94;;;15.34;100.00
61786;BME280;47692;53.714;11.372;2023-08-01T02:41:50;99572.66;;;15.32;100.00
61786;BME280;47692;53.714;11.372;2023-08-01T02:44:16;99684.59;;;15.36;100.00
61786;BME280;47692;53.714;11.372;2023-08-01T02:46:41;99569.00;;;15.34;100.00
61786;BME280;47692;53.714;11.372;2023-08-01T02:49:06;99561.66;;;15.25;100.00
61786;BME280;47692;53.714;11.372;2023-08-01T02:51:32;99559.69;;;15.29;100.00
61786;BME280;47692;53.714;11.372;2023-08-01T02:53:57;99560.25;;;15.34;100.00
61786;BME280;47692;53.714;11.372;2023-08-01T02:56:22;99557.81;;;15.31;100.00
61786;BME280;47692;53.714;11.372;2023-08-01T02:58:48;99547.69;;;15.39;100.00
61786;BME280;47692;53.714;11.372;2023-08-01T03:01:13;99557.63;;;15.34;100.00
61786;BME280;47692;53.714;11.372;2023-08-01T03:03:38;99560.06;;;15.37;100.00
61786;BME280;47692;53.714;11.372;2023-08-01T03:06:04;99560.25;;;15.34;100.00
61786;BME280;47692;53.714;11.372;2023-08-01T03:08:29;99555.19;;;15.31;100.00
61786;BME280;47692;53.714;11.372;2023-08-01T03:10:55;99555.34;;;15.28;100.00
61786;BME280;47692;53.714;11.372;2023-08-01T03:13:20;99552.66;;;15.29;100.00
61786;BME280;47692;53.714;11.372;2023-08-01T03:15:46;99711.63;;;15.24;100.00
61786;BME280;47692;53.714;11.372;2023-08-01T03:18:11;99560.81;;;15.25;100.00
61786;BME280;47692;53.714;11.372;2023-08-01T03:20:36;99557.25;;;15.26;100.00
61786;BME280;47692;53.714;11.372;2023-08-01T03:23:02;99547.66;;;15.25;100.00
61786;BME280;47692;53.714;11.372;2023-08-01T03:25:27;99546.91;;;15.23;100.00
61786;BME280;47692;53.714;11.372;2023-08-01T03:27:53;99549.47;;;15.24;100.00
61786;BME280;47692;53.714;11.372;2023-08-01T03:30:20;99544.00;;;15.27;100.00
61786;BME280;47692;53.714;11.372;2023-08-01T03:32:46;99537.91;;;15.27;100.00
61786;BME280;47692;53.714;11.372;2023-08-01T03:35:11;99537.53;;;15.33;100.00
61786;BME280;47692;53.714;11.372;2023-08-01T03:37:36;99541.28;;;15.29;100.00
61786;BME280;47692;53.714;11.372;2023-08-01T03:40:03;99534.53;;;15.25;100.00
61786;BME280;47692;53.714;11.372;2023-08-01T03:42:28;99539.94;;;15.22;100.00
61786;BME280;47692;53.714;11.372;2023-08-01T03:44:54;99532.00;;;15.23;100.00
61786;BME280;47692;53.714;11.372;2023-08-01T03:47:19;99525.88;;;15.23;100.00
61786;BME280;47692;53.714;11.372;2023-08-01T03:49:45;99535.47;;;15.24;100.00
61786;BME280;47692;53.714;11.372;2023-08-01T03:52:10;99526.38;;;15.29;100.00
61786;BME280;47692;53.714;11.372;2023-08-01T03:54:35;99519.59;;;15.25;100.00
61786;BME280;47692;53.714;11.372;2023-08-01T03:57:01;99514.06;;;15.30;100.00
61786;BME280;47692;53.714;11.372;2023-08-01T03:59:27;99512.47;;;15.27;100.00
61786;BME280;47692;53.714;11.372;2023-08-01T04:01:52;99509.94;;;15.26;100.00
61786;BME280;47692;53.714;11.372;2023-08-01T04:04:18;99511.03;;;15.36;100.00
61786;BME280;47692;53.714;11.372;2023-08-01T04:06:43;99505.34;;;15.29;100.00
61786;BME280;47692;53.714;11.372;2023-08-01T04:09:08;99497.72;;;15.25;100.00
61786;BME280;47692;53.714;11.372;2023-08-01T04:11:34;99500.53;;;15.36;100.00
61786;BME280;47692;53.714;11.372;2023-08-01T04:13:59;99506.72;;;15.35;100.00
61786;BME280;47692;53.714;11.372;2023-08-01T04:16:25;99507.47;;;15.37;100.00
61786;BME280;47692;53.714;11.372;2023-08-01T04:18:51;99494.81;;;15.29;100.00
61786;BME280;47692;53.714;11.372;2023-08-01T04:21:16;99490.94;;;15.35;100.00
61786;BME280;47692;53.714;11.372;2023-08-01T04:23:41;99490.75;;;15.38;100.00
61786;BME280;47692;53.714;11.372;2023-08-01T04:26:07;99489.06;;;15.37;100.00
61786;BME280;47692;53.714;11.372;2023-08-01T04:28:33;99488.50;;;15.32;100.00
61786;BME280;47692;53.714;11.372;2023-08-01T04:30:58;99484.94;;;15.33;100.00
61786;BME280;47692;53.714;11.372;2023-08-01T04:33:23;99484.94;;;15.33;100.00
61786;BME280;47692;53.714;11.372;2023-08-01T04:35:48;99478.19;;;15.29;100.00
61786;BME280;47692;53.714;11.372;2023-08-01T04:38:14;99490.22;;;15.33;100.00
61786;BME280;47692;53.714;11.372;2023-08-01T04:40:41;99491.03;;;15.33;100.00
61786;BME280;47692;53.714;11.372;2023-08-01T04:43:06;99488.50;;;15.32;100.00
61786;BME280;47692;53.714;11.372;2023-08-01T04:45:31;99475.91;;;15.37;100.00
61786;BME280;47692;53.714;11.372;2023-08-01T04:47:57;99478.66;;;15.35;100.00
61786;BME280;47692;53.714;11.372;2023-08-01T04:50:22;99476.09;;;15.34;100.00
61786;BME280;47692;53.714;11.372;2023-08-01T04:52:47;99482.88;;;15.38;100.00
61786;BME280;47692;53.714;11.372;2023-08-01T04:55:12;99485.41;;;15.40;100.00
61786;BME280;47692;53.714;11.372;2023-08-01T04:57:38;99476.31;;;15.31;100.00
61786;BME280;47692;53.714;11.372;2023-08-01T05:00:04;99470.66;;;15.37;100.00
61786;BME280;47692;53.714;11.372;2023-08-01T05:02:29;99471.88;;;15.31;100.00
61786;BME280;47692;53.714;11.372;2023-08-01T05:04:55;99473.41;;;15.35;100.00
61786;BME280;47692;53.714;11.372;2023-08-01T05:07:20;99465.78;;;15.31;100.00
61786;BME280;47692;53.714;11.372;2023-08-01T05:09:45;99468.31;;;15.32;100.00
61786;BME280;47692;53.714;11.372;2023-08-01T05:12:11;99466.72;;;15.30;100.00
61786;BME280;47692;53.714;11.372;2023-08-01T05:14:36;99462.56;;;15.40;100.00
61786;BME280;47692;53.714;11.372;2023-08-01T05:17:01;99458.28;;;15.39;100.00
61786;BME280;47692;53.714;11.372;2023-08-01T05:19:27;99453.19;;;15.36;100.00
61786;BME280;47692;53.714;11.372;2023-08-01T05:21:52;99446.22;;;15.35;100.00
61786;BME280;47692;53.714;11.372;2023-08-01T05:24:17;99446.34;;;15.33;100.00
61786;BME280;47692;53.714;11.372;2023-08-01T05:26:42;99462.56;;;15.40;100.00
61786;BME280;47692;53.714;11.372;2023-08-01T05:29:08;99455.63;;;15.39;100.00
61786;BME280;47692;53.714;11.372;2023-08-01T05:31:33;99457.31;;;15.40;100.00
61786;BME280;47692;53.714;11.372;2023-08-01T05:33:59;99454.50;;;15.43;100.00
61786;BME280;47692;53.714;11.372;2023-08-01T05:36:24;99453.75;;;15.41;100.00
61786;BME280;47692;53.714;11.372;2023-08-01T05:38:49;99462.19;;;15.46;100.00
61786;BME280;47692;53.714;11.372;2023-08-01T05:41:14;99463.31;;;15.42;100.00
61786;BME280;47692;53.714;11.372;2023-08-01T05:43:40;99466.88;;;15.41;100.00
61786;BME280;47692;53.714;11.372;2023-08-01T05:46:05;99464.47;;;15.38;100.00
61786;BME280;47692;53.714;11.372;2023-08-01T05:48:31;99461.44;;;15.44;100.00
61786;BME280;47692;53.714;11.372;2023-08-01T05:50:56;99459.53;;;15.46;100.00
61786;BME280;47692;53.714;11.372;2023-08-01T05:53:23;99459.75;;;15.43;100.00
61786;BME280;47692;53.714;11.372;2023-08-01T05:55:48;99447.94;;;15.36;100.00
61786;BME280;47692;53.714;11.372;2023-08-01T05:58:14;99453.00;;;15.39;100.00
61786;BME280;47692;53.714;11.372;2023-08-01T06:00:39;99462.94;;;15.48;100.00
61786;BME280;47692;53.714;11.372;2023-08-01T06:03:04;99460.91;;;15.39;100.00
61786;BME280;47692;53.714;11.372;2023-08-01T06:05:30;99455.44;;;15.42;100.00
61786;BME280;47692;53.714;11.372;2023-08-01T06:07:55;99459.16;;;15.52;100.00
61786;BME280;47692;53.714;11.372;2023-08-01T06:10:21;99460.50;;;15.45;100.00
61786;BME280;47692;53.714;11.372;2023-08-01T06:12:46;99459.53;;;15.46;100.00
61786;BME280;47692;53.714;11.372;2023-08-01T06:15:12;99455.31;;;15.44;100.00
61786;BME280;47692;53.714;11.372;2023-08-01T06:17:37;99446.50;;;15.45;100.00
61786;BME280;47692;53.714;11.372;2023-08-01T06:20:02;99442.84;;;15.47;100.00
61786;BME280;47692;53.714;11.372;2023-08-01T06:22:31;99445.47;;;15.47;100.00
61786;BME280;47692;53.714;11.372;2023-08-01T06:24:56;99449.28;;;15.56;100.00
61786;BME280;47692;53.714;11.372;2023-08-01T06:27:21;99443.53;;;15.64;100.00
61786;BME280;47692;53.714;11.372;2023-08-01T06:29:47;99438.47;;;15.61;100.00
61786;BME280;47692;53.714;11.372;2023-08-01T06:32:12;99443.25;;;15.68;100.00
61786;BME280;47692;53.714;11.372;2023-08-01T06:34:37;99440.59;;;15.83;100.00
61786;BME280;47692;53.714;11.372;2023-08-01T06:37:03;99439.28;;;15.90;100.00
61786;BME280;47692;53.714;11.372;2023-08-01T06:39:29;99435.66;;;15.91;100.00
61786;BME280;47692;53.714;11.372;2023-08-01T06:41:54;99437.47;;;15.91;100.00
61786;BME280;47692;53.714;11.372;2023-08-01T06:44:20;99436.66;;;16.03;100.00
61786;BME280;47692;53.714;11.372;2023-08-01T06:46:45;99447.00;;;16.06;100.00
61786;BME280;47692;53.714;11.372;2023-08-01T06:49:11;99430.97;;;15.96;100.00
61786;BME280;47692;53.714;11.372;2023-08-01T06:51:36;99426.44;;;15.98;100.00
61786;BME280;47692;53.714;11.372;2023-08-01T06:54:01;99435.19;;;15.99;100.00
61786;BME280;47692;53.714;11.372;2023-08-01T06:56:26;99425.78;;;15.95;100.00
61786;BME280;47692;53.714;11.372;2023-08-01T06:58:52;99424.13;;;15.94;100.00
61786;BME280;47692;53.714;11.372;2023-08-01T07:01:17;99422.50;;;15.91;100.00
61786;BME280;47692;53.714;11.372;2023-08-01T07:03:42;99433.91;;;15.92;100.00
61786;BME280;47692;53.714;11.372;2023-08-01T07:06:08;99438.00;;;15.96;100.00
61786;BME280;47692;53.714;11.372;2023-08-01T07:08:33;99430.09;;;15.96;100.00
61786;BME280;47692;53.714;11.372;2023-08-01T07:10:59;99424.53;;;15.88;100.00
61786;BME280;47692;53.714;11.372;2023-08-01T07:13:24;99434.94;;;15.89;100.00
61786;BME280;47692;53.714;11.372;2023-08-01T07:15:50;99440.44;;;15.99;100.00
61786;BME280;47692;53.714;11.372;2023-08-01T07:18:16;99433.03;;;15.91;100.00
61786;BME280;47692;53.714;11.372;2023-08-01T07:20:41;99429.69;;;15.89;100.00
61786;BME280;47692;53.714;11.372;2023-08-01T07:23:07;99433.03;;;15.91;100.00
61786;BME280;47692;53.714;11.372;2023-08-01T07:25:32;99426.94;;;15.91;100.00
61786;BME280;47692;53.714;11.372;2023-08-01T07:27:57;99416.41;;;15.91;100.00
61786;BME280;47692;53.714;11.372;2023-08-01T07:30:23;99424.31;;;15.91;100.00
61786;BME280;47692;53.714;11.372;2023-08-01T07:32:48;99462.75;;;15.93;100.00
61786;BME280;47692;53.714;11.372;2023-08-01T07:35:14;99457.94;;;16.00;100.00
61786;BME280;47692;53.714;11.372;2023-08-01T07:37:39;99451.13;;;16.10;100.00
61786;BME280;47692;53.714;11.372;2023-08-01T07:40:05;99452.94;;;16.23;100.00
61786;BME280;47692;53.714;11.372;2023-08-01T07:42:31;99452.41;;;16.30;100.00
61786;BME280;47692;53.714;11.372;2023-08-01T07:44:56;99446.31;;;16.30;100.00
61786;BME280;47692;53.714;11.372;2023-08-01T07:47:22;99443.13;;;16.25;100.00
61786;BME280;47692;53.714;11.372;2023-08-01T07:49:49;99438.63;;;16.27;100.00
61786;BME280;47692;53.714;11.372;2023-08-01T07:52:14;99438.41;;;16.30;100.00
61786;BME280;47692;53.714;11.372;2023-08-01T07:54:39;99432.94;;;16.20;100.00
61786;BME280;47692;53.714;11.372;2023-08-01T07:57:05;99440.72;;;16.22;100.00
61786;BME280;47692;53.714;11.372;2023-08-01T07:59:30;99449.16;;;16.27;100.00
61786;BME280;47692;53.714;11.372;2023-08-01T08:01:56;99445.97;;;16.22;100.00
61786;BME280;47692;53.714;11.372;2023-08-01T08:04:21;99450.38;;;16.08;100.00
61786;BME280;47692;53.714;11.372;2023-08-01T08:06:46;99439.56;;;15.86;100.00
61786;BME280;47692;53.714;11.372;2023-08-01T08:09:12;99446.69;;;15.83;100.00
61786;BME280;47692;53.714;11.372;2023-08-01T08:11:37;99437.66;;;15.60;100.00
61786;BME280;47692;53.714;11.372;2023-08-01T08:14:03;99441.75;;;15.64;100.00
61786;BME280;47692;53.714;11.372;2023-08-01T08:16:28;99440.91;;;15.64;100.00
61786;BME280;47692;53.714;11.372;2023-08-01T08:18:54;99440.72;;;15.67;100.00
61786;BME280;47692;53.714;11.372;2023-08-01T08:21:19;99448.56;;;15.81;100.00
61786;BME280;47692;53.714;11.372;2023-08-01T08:23:44;99448.22;;;15.88;100.00
61786;BME280;47692;53.714;11.372;2023-08-01T08:26:10;99443.13;;;15.85;100.00
61786;BME280;47692;53.714;11.372;2023-08-01T08:28:36;99444.44;;;15.92;100.00
61786;BME280;47692;53.714;11.372;2023-08-01T08:31:02;99447.59;;;15.97;100.00
61786;BME280;47692;53.714;11.372;2023-08-01T08:33:28;99448.13;;;16.02;100.00
61786;BME280;47692;53.714;11.372;2023-08-01T08:35:54;99448.66;;;16.07;100.00
61786;BME280;47692;53.714;11.372;2023-08-01T08:38:20;99445.00;;;16.10;100.00
61786;BME280;47692;53.714;11.372;2023-08-01T08:41:09;99444.91;;;16.11;100.00
61786;BME280;47692;53.714;11.372;2023-08-01T08:43:36;99436.16;;;16.11;100.00
61786;BME280;47692;53.714;11.372;2023-08-01T08:46:03;99447.03;;;16.19;100.00
61786;BME280;47692;53.714;11.372;2023-08-01T08:48:29;99445.97;;;16.22;100.00
61786;BME280;47692;53.714;11.372;2023-08-01T08:50:58;99440.72;;;16.22;100.00
61786;BME280;47692;53.714;11.372;2023-08-01T08:53:25;99441.13;;;16.28;100.00
61786;BME280;47692;53.714;11.372;2023-08-01T08:55:50;99443.47;;;16.33;100.00
61786;BME280;47692;53.714;11.372;2023-08-01T08:58:16;99438.63;;;16.40;100.00
61786;BME280;47692;53.714;11.372;2023-08-01T09:00:43;99442.63;;;16.45;100.00
61786;BME280;47692;53.714;11.372;2023-08-01T09:03:09;99444.66;;;16.55;100.00
61786;BME280;47692;53.714;11.372;2023-08-01T09:05:40;99444.78;;;16.66;100.00
61786;BME280;47692;53.714;11.372;2023-08-01T09:08:16;99443.19;;;16.63;100.00
61786;BME280;47692;53.714;11.372;2023-08-01T09:10:43;99458.91;;;16.65;100.00
61786;BME280;47692;53.714;11.372;2023-08-01T09:13:08;99451.94;;;16.64;100.00
61786;BME280;47692;53.714;11.372;2023-08-01T09:15:35;99443.81;;;16.67;100.00
61786;BME280;47692;53.714;11.372;2023-08-01T09:18:06;99443.50;;;16.72;100.00
61786;BME280;47692;53.714;11.372;2023-08-01T09:20:46;99440.03;;;16.71;100.00
61786;BME280;47692;53.714;11.372;2023-08-01T09:23:12;99438.53;;;16.67;100.00
61786;BME280;47692;53.714;11.372;2023-08-01T09:25:39;99439.09;;;16.72;100.00
61786;BME280;47692;53.714;11.372;2023-08-01T09:28:18;99436.03;;;16.78;100.00
61786;BME280;47692;53.714;11.372;2023-08-01T09:30:51;99434.63;;;16.86;100.00
61786;BME280;47692;53.714;11.372;2023-08-01T09:33:18;99425.38;;;16.93;100.00
61786;BME280;47692;53.714;11.372;2023-08-01T09:35:44;99433.38;;;17.04;100.00
61786;BME280;47692;53.714;11.372;2023-08-01T09:38:12;99425.25;;;16.94;100.00
61786;BME280;47692;53.714;11.372;2023-08-01T09:40:39;99433.19;;;16.94;100.00
61786;BME280;47692;53.714;11.372;2023-08-01T09:43:05;99426.00;;;16.84;100.00
61786;BME280;47692;53.714;11.372;2023-08-01T09:45:31;99422.44;;;16.85;100.00
61786;BME280;47692;53.714;11.372;2023-08-01T09:47:56;99418.63;;;16.89;100.00
61786;BME280;47692;53.714;11.372;2023-08-01T09:50:23;99422.53;;;16.96;100.00
61786;BME280;47692;53.714;11.372;2023-08-01T09:52:49;99422.00;;;16.91;100.00
61786;BME280;47692;53.714;11.372;2023-08-01T09:55:31;99424.94;;;16.99;100.00
61786;BME280;47692;53.714;11.372;2023-08-01T09:57:58;99418.81;;;17.11;100.00
61786;BME280;47692;53.714;11.372;2023-08-01T10:00:28;99434.19;;;17.18;100.00
61786;BME280;47692;53.714;11.372;2023-08-01T10:02:58;99435.41;;;17.38;100.00
61786;BME280;47692;53.714;11.372;2023-08-01T10:05:31;99512.19;;;17.59;100.00
61786;BME280;47692;53.714;11.372;2023-08-01T10:08:00;99458.97;;;17.65;100.00
61786;BME280;47692;53.714;11.372;2023-08-01T10:10:27;99448.41;;;17.65;100.00
61786;BME280;47692;53.714;11.372;2023-08-01T10:12:55;99453.47;;;17.68;99.77
61786;BME280;47692;53.714;11.372;2023-08-01T10:15:21;99457.63;;;17.84;100.00
61786;BME280;47692;53.714;11.372;2023-08-01T10:17:46;99448.13;;;17.94;99.59
61786;BME280;47692;53.714;11.372;2023-08-01T10:20:12;99444.31;;;17.98;98.18
61786;BME280;47692;53.714;11.372;2023-08-01T10:22:39;99443.75;;;18.17;98.56
61786;BME280;47692;53.714;11.372;2023-08-01T10:25:08;99452.78;;;18.26;96.56
61786;BME280;47692;53.714;11.372;2023-08-01T10:27:34;99439.19;;;18.55;100.00
61786;BME280;47692;53.714;11.372;2023-08-01T10:30:03;99440.63;;;18.59;94.35
61786;BME280;47692;53.714;11.372;2023-08-01T10:32:36;99447.63;;;18.71;94.57
61786;BME280;47692;53.714;11.372;2023-08-01T10:35:02;99445.00;;;18.83;95.39
61786;BME280;47692;53.714;11.372;2023-08-01T10:37:42;99427.44;;;18.82;92.23
61786;BME280;47692;53.714;11.372;2023-08-01T10:40:08;99424.56;;;18.85;91.44
61786;BME280;47692;53.714;11.372;2023-08-01T10:42:41;99427.91;;;18.87;93.16
61786;BME280;47692;53.714;11.372;2023-08-01T10:45:18;99420.13;;;18.97;93.75
61786;BME280;47692;53.714;11.372;2023-08-01T10:47:45;99428.44;;;19.15;92.34
61786;BME280;47692;53.714;11.372;2023-08-01T10:50:17;99611.44;;;19.20;93.40
61786;BME280;47692;53.714;11.372;2023-08-01T10:52:43;99292.31;;;19.19;92.01
61786;BME280;47692;53.714;11.372;2023-08-01T10:55:10;99359.25;;;19.19;89.11
61786;BME280;47692;53.714;11.372;2023-08-01T10:57:46;99351.22;;;19.21;87.89
61786;BME280;47692;53.714;11.372;2023-08-01T11:00:15;99354.34;;;19.26;89.58
61786;BME280;47692;53.714;11.372;2023-08-01T11:02:41;99358.22;;;19.54;88.64
61786;BME280;47692;53.714;11.372;2023-08-01T11:05:07;99352.75;;;19.67;87.58
61786;BME280;47692;53.714;11.372;2023-08-01T11:07:34;99349.34;;;19.88;89.17
61786;BME280;47692;53.714;11.372;2023-08-01T11:10:06;99349.00;;;20.02;85.76
61786;BME280;47692;53.714;11.372;2023-08-01T11:12:40;99341.28;;;19.78;81.63
61786;BME280;47692;53.714;11.372;2023-08-01T11:15:11;99335.75;;;19.49;82.67
61786;BME280;47692;53.714;11.372;2023-08-01T11:17:38;99342.03;;;19.36;83.59
61786;BME280;47692;53.714;11.372;2023-08-01T11:20:11;99344.72;;;19.25;84.50
61786;BME280;47692;53.714;11.372;2023-08-01T11:22:37;99341.16;;;19.03;85.22
61786;BME280;47692;53.714;11.372;2023-08-01T11:25:04;99334.44;;;18.99;87.48
61786;BME280;47692;53.714;11.372;2023-08-01T11:27:29;99325.06;;;18.84;87.35
61786;BME280;47692;53.714;11.372;2023-08-01T11:29:55;99336.13;;;18.78;88.19
61786;BME280;47692;53.714;11.372;2023-08-01T11:32:21;99331.78;;;18.65;86.98
61786;BME280;47692;53.714;11.372;2023-08-01T11:34:48;99333.72;;;18.63;88.61
61786;BME280;47692;53.714;11.372;2023-08-01T11:37:18;99320.75;;;18.49;89.94
61786;BME280;47692;53.714;11.372;2023-08-01T11:39:44;99327.13;;;18.46;90.99
61786;BME280;47692;53.714;11.372;2023-08-01T11:42:16;99340.69;;;18.64;91.18
61786;BME280;47692;53.714;11.372;2023-08-01T11:44:45;99339.50;;;18.91;88.80
61786;BME280;47692;53.714;11.372;2023-08-01T11:47:15;99337.75;;;19.24;85.75
61786;BME280;47692;53.714;11.372;2023-08-01T11:49:48;99339.03;;;19.41;84.24
61786;BME280;47692;53.714;11.372;2023-08-01T11:52:27;99348.34;;;19.57;85.81
61786;BME280;47692;53.714;11.372;2023-08-01T11:54:54;99364.56;;;19.63;86.36
61786;BME280;47692;53.714;11.372;2023-08-01T11:57:22;99374.56;;;19.04;83.47
61786;BME280;47692;53.714;11.372;2023-08-01T11:59:55;99349.44;;;18.53;83.09
61786;BME280;47692;53.714;11.372;2023-08-01T12:02:28;99342.78;;;18.25;86.02
61786;BME280;47692;53.714;11.372;2023-08-01T12:04:57;99337.44;;;18.27;87.62
61786;BME280;47692;53.714;11.372;2023-08-01T12:07:25;99342.59;;;18.39;87.35
61786;BME280;47692;53.714;11.372;2023-08-01T12:10:00;99348.59;;;18.76;90.09
61786;BME280;47692;53.714;11.372;2023-08-01T12:12:27;99343.69;;;19.05;87.43
61786;BME280;47692;53.714;11.372;2023-08-01T12:14:53;99347.09;;;19.40;87.40
61786;BME280;47692;53.714;11.372;2023-08-01T12:17:19;99363.56;;;19.76;83.82
61786;BME280;47692;53.714;11.372;2023-08-01T12:19:44;99357.16;;;20.11;82.30
61786;BME280;47692;53.714;11.372;2023-08-01T12:22:11;99351.91;;;20.21;79.72
61786;BME280;47692;53.714;11.372;2023-08-01T12:24:36;99353.06;;;20.28;82.53
61786;BME280;47692;53.714;11.372;2023-08-01T12:27:05;99475.81;;;20.28;81.86
61786;BME280;47692;53.714;11.372;2023-08-01T12:29:31;99382.25;;;20.38;80.42
61786;BME280;47692;53.714;11.372;2023-08-01T12:31:56;99360.91;;;20.60;77.81
61786;BME280;47692;53.714;11.372;2023-08-01T12:34:21;99367.19;;;20.90;79.53
61786;BME280;47692;53.714;11.372;2023-08-01T12:36:46;99371.06;;;21.37;80.87
61786;BME280;47692;53.714;11.372;2023-08-01T12:39:12;99372.38;;;21.72;78.52